EHMG

L9-ff-1 Sea

L9-ff-1 Sea, The Netherlands
METAR EHMG 260255Z AUTO 07021KT 2500 -SN FEW003 SCT017 BKN031 M00/M04 Q1033 W///H///
Observed Flight Rules
Feb-26 @ 02:55 UTC (18 minutes ago) Instrument Flight Rules
Wind Visibility Clouds Conditions
70° at 21 knots 2,494 meters
  • Few at 300' AGL
  • Scattered at 1,700' AGL
  • Broken at 3,100' AGL
  • Light Snow
Temperatures Readings
Current 0°C / 32°F
Dewpoint -4°C / 25°F
Humidity 75%
Altimeter 30.5" Hg
Pressure 1033 hPa
Elevation 50
METAR EHMG 260255Z AUTO 07021KT 2500 -SN FEW003 SCT017 BKN031 M00/M04 Q1033 W///H///
Observed Flight Rules
Feb-26 @ 02:55 UTC
(18 minutes ago)
IFR
Wind Visibility
70° at 21 knots 2,494 meters
Clouds
  • Few at 300' AGL
  • Scattered at 1,700' AGL
  • Broken at 3,100' AGL
Conditions
  • Light Snow
Temperature Dewpoint
0°C / 32°F -4°C / 25°F
Humidity Altimeter Pressure
75% 30.5" Hg 1033 hPa